createdAt,value
2022-08-25T00:00:02.408Z,0.00
2022-08-25T00:01:02.368Z,0.00
2022-08-25T00:02:03.203Z,0.00
2022-08-25T00:03:02.362Z,0.00
2022-08-25T00:04:02.240Z,0.00
2022-08-25T00:05:03.042Z,0.00
2022-08-25T00:06:02.156Z,0.00
2022-08-25T00:07:03.257Z,0.00
2022-08-25T00:08:02.178Z,0.00
2022-08-25T00:09:02.030Z,0.00
2022-08-25T00:10:01.986Z,0.00
2022-08-25T00:11:03.414Z,0.00
2022-08-25T00:12:01.904Z,0.00
2022-08-25T00:13:01.867Z,0.00
2022-08-25T00:14:01.820Z,0.00
2022-08-25T00:15:01.776Z,0.00
2022-08-25T00:16:01.796Z,0.00
2022-08-25T00:17:01.698Z,0.00
2022-08-25T00:18:01.715Z,0.00
2022-08-25T00:19:01.607Z,0.00
2022-08-25T00:20:01.565Z,0.00
2022-08-25T00:21:01.523Z,0.00
2022-08-25T00:22:01.492Z,0.00
2022-08-25T00:24:01.396Z,0.00
2022-08-25T00:25:01.353Z,0.00
2022-08-25T00:26:01.312Z,0.00
2022-08-25T00:27:01.267Z,0.00
2022-08-25T00:28:05.190Z,0.00
2022-08-25T00:29:01.347Z,0.00
2022-08-25T00:30:01.144Z,0.00
2022-08-25T00:31:01.129Z,0.00
2022-08-25T00:32:01.061Z,0.00
2022-08-25T00:33:01.015Z,0.00
2022-08-25T00:34:00.973Z,0.00
2022-08-25T00:35:00.930Z,0.00
2022-08-25T00:36:00.892Z,0.00
2022-08-25T00:37:00.844Z,0.00
2022-08-25T00:38:00.806Z,0.00
2022-08-25T00:39:00.758Z,0.00
2022-08-25T00:40:00.784Z,0.00
2022-08-25T00:41:00.675Z,0.00
2022-08-25T00:42:00.634Z,0.00
2022-08-25T00:43:00.592Z,0.00
2022-08-25T00:44:00.548Z,0.00
2022-08-25T00:45:00.709Z,0.00
2022-08-25T00:46:00.495Z,0.00
2022-08-25T00:47:00.423Z,0.00
2022-08-25T00:48:00.380Z,0.00
2022-08-25T00:49:00.336Z,0.00
2022-08-25T00:50:00.296Z,0.00
2022-08-25T00:51:00.249Z,0.00
2022-08-25T00:52:00.210Z,0.00
2022-08-25T00:53:00.166Z,0.00
2022-08-25T00:54:00.124Z,0.00
2022-08-25T00:55:04.319Z,0.00
2022-08-25T00:56:00.039Z,0.00
2022-08-25T00:56:59.994Z,0.00
2022-08-25T00:57:59.955Z,0.00
2022-08-25T00:58:59.910Z,0.00
2022-08-25T00:59:59.871Z,0.00
2022-08-25T01:00:59.825Z,0.00
2022-08-25T01:01:59.832Z,0.00
2022-08-25T01:02:59.815Z,0.00
2022-08-25T01:03:59.703Z,0.00
2022-08-25T01:04:59.654Z,0.00
2022-08-25T01:05:59.617Z,0.00
2022-08-25T01:06:59.569Z,0.00
2022-08-25T01:07:59.632Z,0.00
2022-08-25T01:08:59.486Z,0.00
2022-08-25T01:09:59.450Z,0.00
2022-08-25T01:10:59.403Z,0.00
2022-08-25T01:11:59.358Z,0.00
2022-08-25T01:12:59.316Z,0.00
2022-08-25T01:13:59.280Z,0.00
2022-08-25T01:14:59.233Z,0.00
2022-08-25T01:15:59.251Z,0.00
2022-08-25T01:16:59.144Z,0.00
2022-08-25T01:18:02.654Z,0.00
2022-08-25T01:18:59.060Z,0.00
2022-08-25T01:19:59.019Z,0.00
2022-08-25T01:20:58.977Z,0.00
2022-08-25T01:21:58.933Z,0.00
2022-08-25T01:22:58.891Z,0.00
2022-08-25T01:23:58.848Z,0.00
2022-08-25T01:24:58.804Z,0.00
2022-08-25T01:25:58.762Z,0.00
2022-08-25T01:26:58.730Z,0.00
2022-08-25T01:27:58.679Z,0.00
2022-08-25T01:28:58.634Z,0.00
2022-08-25T01:29:58.594Z,0.00
2022-08-25T01:30:58.601Z,0.00
2022-08-25T01:31:58.508Z,0.00
2022-08-25T01:32:58.469Z,0.00
2022-08-25T01:33:58.422Z,0.00
2022-08-25T01:34:58.378Z,0.00
2022-08-25T01:35:58.337Z,0.00
2022-08-25T01:36:58.292Z,0.00
2022-08-25T01:37:58.254Z,0.00
2022-08-25T01:38:58.206Z,0.00
2022-08-25T01:39:58.199Z,0.00
2022-08-25T01:40:58.121Z,0.00
2022-08-25T01:41:58.081Z,0.00
2022-08-25T01:42:58.036Z,0.00
2022-08-25T01:43:57.995Z,0.00
2022-08-25T01:44:57.950Z,0.00
2022-08-25T01:45:57.953Z,0.00
2022-08-25T01:46:57.866Z,0.00
2022-08-25T01:47:57.825Z,0.00
2022-08-25T01:48:57.779Z,0.00
2022-08-25T01:55:50.795Z,0.00
2022-08-25T01:56:50.750Z,0.00
2022-08-25T01:57:50.711Z,0.00
2022-08-25T01:58:50.667Z,0.00
2022-08-25T01:59:50.625Z,0.00
2022-08-25T02:00:50.581Z,0.00
2022-08-25T02:01:50.622Z,0.00
2022-08-25T02:02:52.325Z,0.00
2022-08-25T02:03:50.455Z,0.00
2022-08-25T02:31:22.068Z,0.00
2022-08-25T02:34:48.642Z,0.00
2022-08-25T02:35:48.597Z,0.00
2022-08-25T02:40:18.854Z,0.00
2022-08-25T02:41:18.757Z,0.00
2022-08-25T02:42:18.717Z,0.00
2022-08-25T02:43:21.290Z,0.00
2022-08-25T02:44:18.631Z,0.00
2022-08-25T02:45:18.579Z,0.00
2022-08-25T02:46:18.591Z,0.00
2022-08-25T02:47:18.493Z,0.00
2022-08-25T02:48:18.458Z,0.00
2022-08-25T02:49:18.409Z,0.00
2022-08-25T02:50:18.368Z,0.00
2022-08-25T02:51:18.332Z,0.00
2022-08-25T02:52:18.291Z,0.00
2022-08-25T02:53:18.237Z,0.00
2022-08-25T02:54:18.196Z,0.00
2022-08-25T02:55:18.157Z,0.00
2022-08-25T02:56:18.116Z,0.00
2022-08-25T02:57:18.073Z,0.00
2022-08-25T02:58:18.040Z,0.00
2022-08-25T02:59:17.984Z,0.00
2022-08-25T03:08:21.637Z,0.00
2022-08-25T03:09:21.575Z,0.00
2022-08-25T03:10:21.537Z,0.00
2022-08-25T03:11:21.493Z,0.00
2022-08-25T03:12:21.453Z,0.00
2022-08-25T03:13:21.405Z,0.00
2022-08-25T03:14:21.364Z,0.00
2022-08-25T03:15:21.321Z,0.00
2022-08-25T03:16:21.340Z,0.00
2022-08-25T03:17:21.233Z,0.00
2022-08-25T03:18:21.190Z,0.00
2022-08-25T03:19:21.148Z,0.00
2022-08-25T03:20:21.107Z,0.00
2022-08-25T03:21:21.066Z,0.00
2022-08-25T03:22:21.020Z,0.00
2022-08-25T03:23:20.973Z,0.00
2022-08-25T03:24:20.933Z,0.00
2022-08-25T03:25:24.062Z,0.00
2022-08-25T03:26:20.846Z,0.00
2022-08-25T03:27:20.804Z,0.00
2022-08-25T03:28:20.759Z,0.00
2022-08-25T03:29:20.716Z,0.00
2022-08-25T03:30:20.877Z,0.00
2022-08-25T03:31:20.664Z,0.00
2022-08-25T03:32:20.587Z,0.00
2022-08-25T03:33:20.541Z,0.00
2022-08-25T03:34:20.500Z,0.00
2022-08-25T03:35:20.457Z,0.00
2022-08-25T03:36:20.418Z,0.00
2022-08-25T03:37:20.369Z,0.00
2022-08-25T03:38:20.329Z,0.00
2022-08-25T03:39:20.283Z,0.00
2022-08-25T03:40:20.270Z,0.00
2022-08-25T03:41:20.195Z,0.00
2022-08-25T03:42:20.156Z,0.00
2022-08-25T03:43:20.112Z,0.00
2022-08-25T03:44:20.070Z,0.00
2022-08-25T03:45:20.023Z,0.00
2022-08-25T03:46:20.035Z,0.00
2022-08-25T03:47:19.936Z,0.00
2022-08-25T03:48:19.896Z,0.00
2022-08-25T03:49:19.848Z,0.00
2022-08-25T03:50:19.805Z,0.00
2022-08-25T03:51:19.763Z,0.00
2022-08-25T03:52:19.720Z,0.00
2022-08-25T03:53:19.677Z,0.00
2022-08-25T03:54:19.633Z,0.00
2022-08-25T03:55:19.586Z,0.00
2022-08-25T03:56:19.546Z,0.00
2022-08-25T03:57:19.503Z,0.00
2022-08-25T03:58:19.463Z,0.00
2022-08-25T03:59:19.418Z,0.00
2022-08-25T04:00:19.372Z,0.00
2022-08-25T04:01:19.399Z,0.00
2022-08-25T04:02:19.333Z,0.00
2022-08-25T04:03:19.242Z,0.00
2022-08-25T04:04:19.198Z,0.00
2022-08-25T04:05:19.153Z,0.00
2022-08-25T04:06:19.113Z,0.00
2022-08-25T04:08:19.030Z,4.00
2022-08-25T04:09:18.984Z,0.00
2022-08-25T04:10:18.939Z,4.00
2022-08-25T04:11:18.903Z,4.00
2022-08-25T04:12:18.970Z,4.00
2022-08-25T04:13:18.807Z,4.00
2022-08-25T04:14:18.765Z,4.00
2022-08-25T04:15:18.723Z,8.00
2022-08-25T04:16:18.761Z,8.00
2022-08-25T04:17:18.634Z,8.00
2022-08-25T04:18:18.590Z,8.00
2022-08-25T04:19:18.548Z,12.00
2022-08-25T04:20:18.504Z,12.00
2022-08-25T04:21:18.464Z,16.00
2022-08-25T04:22:18.416Z,20.00
2022-08-25T04:23:18.376Z,16.00
2022-08-25T04:24:18.332Z,24.00
2022-08-25T04:25:18.293Z,28.00
2022-08-25T04:26:18.243Z,28.00
2022-08-25T04:27:18.202Z,32.00
2022-08-25T04:28:18.158Z,40.00
2022-08-25T04:29:18.113Z,44.00
2022-08-25T04:30:18.070Z,48.00
2022-08-25T04:31:18.093Z,52.00
2022-08-25T04:32:17.983Z,56.00
2022-08-25T04:34:29.681Z,68.00
2022-08-25T04:35:17.853Z,76.00
2022-08-25T04:36:17.810Z,80.00
2022-08-25T04:37:17.766Z,88.00
2022-08-25T04:38:17.724Z,96.00
2022-08-25T04:39:17.680Z,104.00
2022-08-25T04:40:17.813Z,108.00
2022-08-25T04:41:17.591Z,116.00
2022-08-25T04:42:17.550Z,124.00
2022-08-25T04:43:17.505Z,132.00
2022-08-25T04:44:17.464Z,148.00
2022-08-25T04:45:17.419Z,156.00
2022-08-25T04:46:20.538Z,160.00
2022-08-25T04:47:17.332Z,168.00
2022-08-25T04:48:17.292Z,180.00
2022-08-25T04:49:17.245Z,188.00
2022-08-25T04:50:17.202Z,200.00
2022-08-25T04:51:17.363Z,208.00
2022-08-25T04:52:17.322Z,220.00
2022-08-25T04:53:17.072Z,228.00
2022-08-25T04:54:17.033Z,236.00
2022-08-25T04:55:16.986Z,244.00
2022-08-25T04:56:16.942Z,256.00
2022-08-25T04:57:16.898Z,264.00
2022-08-25T04:58:16.857Z,276.00
2022-08-25T04:59:16.813Z,284.00
2022-08-25T05:00:16.772Z,296.00
2022-08-25T05:01:16.773Z,304.00
2022-08-25T05:02:16.684Z,312.00
2022-08-25T05:03:16.643Z,320.00
2022-08-25T05:04:27.737Z,332.00
2022-08-25T05:05:16.552Z,340.00
2022-08-25T05:06:16.558Z,352.00
2022-08-25T05:07:16.467Z,360.00
2022-08-25T05:08:16.424Z,368.00
2022-08-25T05:09:16.388Z,376.00
2022-08-25T05:10:16.341Z,388.00
2022-08-25T05:11:16.293Z,396.00
2022-08-25T05:12:16.452Z,404.00
2022-08-25T05:13:16.204Z,412.00
2022-08-25T05:14:16.163Z,420.00
2022-08-25T05:15:16.118Z,432.00
2022-08-25T05:16:16.090Z,444.00
2022-08-25T05:17:16.031Z,452.00
2022-08-25T05:18:15.990Z,456.00
2022-08-25T05:19:15.945Z,468.00
2022-08-25T05:20:15.902Z,476.00
2022-08-25T05:21:15.858Z,484.00
2022-08-25T05:22:15.817Z,492.00
2022-08-25T05:23:15.770Z,504.00
2022-08-25T05:24:15.729Z,512.00
2022-08-25T05:25:15.684Z,520.00
2022-08-25T05:26:19.724Z,528.00
2022-08-25T05:27:15.597Z,536.00
2022-08-25T05:28:15.558Z,544.00
2022-08-25T05:29:15.510Z,548.00
2022-08-25T05:30:15.470Z,560.00
2022-08-25T05:31:15.474Z,568.00
2022-08-25T05:32:15.382Z,576.00
2022-08-25T05:33:15.338Z,584.00
2022-08-25T05:34:15.300Z,592.00
2022-08-25T05:35:15.252Z,600.00
2022-08-25T05:36:15.213Z,608.00
2022-08-25T05:37:15.167Z,612.00
2022-08-25T05:38:15.583Z,620.00
2022-08-25T05:39:15.084Z,628.00
2022-08-25T05:40:15.146Z,636.00
2022-08-25T05:41:14.993Z,640.00
2022-08-25T05:42:14.949Z,648.00
2022-08-25T05:43:14.906Z,660.00
2022-08-25T05:44:19.098Z,664.00
2022-08-25T05:45:20.358Z,672.00
2022-08-25T05:46:14.843Z,680.00
2022-08-25T05:47:14.731Z,688.00
2022-08-25T05:48:14.691Z,692.00
2022-08-25T05:49:14.645Z,700.00
2022-08-25T05:50:14.604Z,708.00
2022-08-25T05:51:14.558Z,716.00
2022-08-25T05:52:18.134Z,720.00
2022-08-25T05:53:14.473Z,728.00
2022-08-25T05:54:14.435Z,736.00
2022-08-25T05:55:14.390Z,740.00
2022-08-25T05:56:14.344Z,748.00
2022-08-25T05:57:14.300Z,752.00
2022-08-25T05:58:14.287Z,756.00
2022-08-25T05:59:14.214Z,764.00
2022-08-25T06:00:14.183Z,772.00
2022-08-25T06:01:14.192Z,780.00
2022-08-25T06:02:14.089Z,784.00
2022-08-25T06:03:14.072Z,788.00
2022-08-25T06:04:14.005Z,788.00
2022-08-25T06:05:13.955Z,792.00
2022-08-25T06:06:13.915Z,800.00
2022-08-25T06:07:13.869Z,804.00
2022-08-25T06:08:13.828Z,808.00
2022-08-25T06:09:13.782Z,812.00
2022-08-25T06:10:13.747Z,816.00
2022-08-25T06:11:13.696Z,816.00
2022-08-25T06:12:13.654Z,824.00
2022-08-25T06:13:13.611Z,824.00
2022-08-25T06:14:13.569Z,832.00
2022-08-25T06:15:13.524Z,832.00
2022-08-25T06:16:13.565Z,836.00
2022-08-25T06:17:13.436Z,840.00
2022-08-25T06:18:13.401Z,844.00
2022-08-25T06:19:13.354Z,852.00
2022-08-25T06:20:13.319Z,860.00
2022-08-25T06:21:13.267Z,864.00
2022-08-25T06:22:13.225Z,864.00
2022-08-25T06:23:13.181Z,872.00
2022-08-25T06:24:15.605Z,880.00
2022-08-25T06:25:13.097Z,888.00
2022-08-25T06:26:20.977Z,892.00
2022-08-25T06:27:13.011Z,900.00
2022-08-25T06:28:12.974Z,908.00
2022-08-25T06:29:12.923Z,916.00
2022-08-25T06:30:12.888Z,928.00
2022-08-25T06:31:12.874Z,940.00
2022-08-25T06:32:12.799Z,952.00
2022-08-25T06:33:12.753Z,968.00
2022-08-25T06:34:12.713Z,980.00
2022-08-25T06:35:12.670Z,996.00
2022-08-25T06:36:12.626Z,1008.00
2022-08-25T06:37:12.582Z,1016.00
2022-08-25T06:38:12.542Z,1036.00
2022-08-25T06:39:12.498Z,1048.00
2022-08-25T06:40:12.511Z,1064.00
2022-08-25T06:41:12.414Z,1080.00
2022-08-25T06:42:12.374Z,1096.00
2022-08-25T06:43:12.327Z,1116.00
2022-08-25T06:44:12.285Z,1128.00
2022-08-25T06:45:12.242Z,1148.00
2022-08-25T06:46:12.216Z,1168.00
2022-08-25T06:47:12.241Z,1184.00
2022-08-25T06:48:12.117Z,1200.00
2022-08-25T06:49:12.072Z,1212.00
2022-08-25T06:50:12.236Z,1236.00
2022-08-25T06:51:14.103Z,1256.00
2022-08-25T06:52:11.947Z,1272.00
2022-08-25T06:53:11.907Z,1288.00
2022-08-25T06:54:11.861Z,1300.00
2022-08-25T06:55:11.822Z,1312.00
2022-08-25T06:56:11.777Z,1312.00
2022-08-25T06:57:11.732Z,1316.00
2022-08-25T06:58:11.693Z,1324.00
2022-08-25T06:59:11.649Z,1336.00
2022-08-25T07:00:12.491Z,1344.00
2022-08-25T07:01:15.924Z,1348.00
2022-08-25T07:02:11.595Z,1352.00
2022-08-25T07:03:11.554Z,1372.00
2022-08-25T07:04:12.872Z,1396.00
2022-08-25T07:05:17.137Z,1424.00
2022-08-25T07:06:11.354Z,1448.00
2022-08-25T07:07:11.311Z,1464.00
2022-08-25T07:08:11.270Z,1480.00
2022-08-25T07:09:11.228Z,1496.00
2022-08-25T07:10:11.186Z,1512.00
2022-08-25T07:11:16.081Z,1532.00
2022-08-25T07:12:11.104Z,1556.00
2022-08-25T07:13:11.058Z,1576.00
2022-08-25T07:14:11.018Z,1588.00
2022-08-25T07:15:19.913Z,1600.00
2022-08-25T07:16:10.961Z,1608.00
2022-08-25T07:17:12.544Z,1616.00
2022-08-25T07:18:10.851Z,1632.00
2022-08-25T07:19:10.809Z,1640.00
2022-08-25T07:20:10.766Z,1652.00
2022-08-25T07:21:10.723Z,1668.00
2022-08-25T07:22:10.683Z,1680.00
2022-08-25T07:23:10.641Z,1688.00
2022-08-25T07:24:10.604Z,1700.00
2022-08-25T07:25:10.557Z,1712.00
2022-08-25T07:26:21.296Z,1724.00
2022-08-25T07:27:10.477Z,1728.00
2022-08-25T07:28:10.467Z,1740.00
2022-08-25T07:29:10.392Z,1752.00
2022-08-25T07:30:11.244Z,1764.00
2022-08-25T07:31:10.381Z,1772.00
2022-08-25T07:32:10.264Z,1776.00
2022-08-25T07:33:10.531Z,1796.00
2022-08-25T07:34:10.383Z,1796.00
2022-08-25T07:35:10.140Z,1812.00
2022-08-25T07:36:10.097Z,1824.00
2022-08-25T07:37:10.058Z,1832.00
2022-08-25T07:38:10.286Z,1848.00
2022-08-25T07:39:09.973Z,1852.00
2022-08-25T07:40:09.996Z,1856.00
2022-08-25T07:41:09.893Z,1852.00
2022-08-25T07:42:12.016Z,1860.00
2022-08-25T07:43:09.809Z,1868.00
2022-08-25T07:44:09.766Z,1880.00
2022-08-25T07:45:09.724Z,1896.00
2022-08-25T07:46:09.698Z,1904.00
2022-08-25T07:47:09.640Z,1912.00
2022-08-25T07:48:09.601Z,1920.00
2022-08-25T07:49:16.619Z,1928.00
2022-08-25T07:50:09.514Z,1940.00
2022-08-25T07:51:09.480Z,1948.00
2022-08-25T07:52:09.434Z,1960.00
2022-08-25T07:53:09.802Z,1964.00
2022-08-25T07:54:09.351Z,1964.00
2022-08-25T07:55:11.178Z,1972.00
2022-08-25T07:56:09.280Z,1984.00
2022-08-25T07:57:09.227Z,1988.00
2022-08-25T07:58:09.185Z,2000.00
2022-08-25T07:59:09.147Z,2000.00
2022-08-25T08:00:09.110Z,2016.00
2022-08-25T08:01:09.062Z,2024.00
2022-08-25T08:02:09.110Z,2032.00
2022-08-25T08:03:12.863Z,2032.00
2022-08-25T08:04:09.007Z,2040.00
2022-08-25T08:05:09.628Z,2044.00
2022-08-25T08:06:08.856Z,2052.00
2022-08-25T08:07:11.942Z,2064.00
2022-08-25T08:08:08.775Z,2068.00
2022-08-25T08:09:08.734Z,2084.00
2022-08-25T08:10:42.470Z,2092.00
2022-08-25T08:11:09.706Z,2096.00
2022-08-25T08:12:08.610Z,2104.00
2022-08-25T08:13:09.016Z,2108.00
2022-08-25T08:14:08.526Z,2112.00
2022-08-25T08:15:10.339Z,2108.00
2022-08-25T08:16:08.468Z,2108.00
2022-08-25T08:17:08.410Z,2124.00
2022-08-25T08:18:08.366Z,2144.00
2022-08-25T08:19:08.325Z,2144.00
2022-08-25T08:20:08.282Z,2148.00
2022-08-25T08:21:08.244Z,2156.00
2022-08-25T08:22:11.233Z,2156.00
2022-08-25T08:23:08.306Z,2160.00
2022-08-25T08:24:24.825Z,2164.00
2022-08-25T08:25:10.569Z,2176.00
2022-08-25T08:26:08.037Z,2188.00
2022-08-25T08:27:08.007Z,2196.00
2022-08-25T08:28:08.181Z,2192.00
2022-08-25T08:29:07.918Z,2200.00
2022-08-25T08:30:07.876Z,2204.00
2022-08-25T08:31:10.774Z,2208.00
2022-08-25T08:32:07.795Z,2216.00
2022-08-25T08:33:19.579Z,2224.00
2022-08-25T08:34:07.715Z,2240.00
2022-08-25T08:35:07.676Z,2240.00
2022-08-25T08:36:07.633Z,2240.00
2022-08-25T08:44:19.081Z,2300.00
2022-08-25T08:45:19.036Z,2316.00
2022-08-25T08:46:19.063Z,2320.00
2022-08-25T08:47:18.956Z,2332.00
2022-08-25T08:48:18.916Z,2352.00
2022-08-25T08:49:18.876Z,2360.00
2022-08-25T08:50:24.013Z,2364.00
2022-08-25T08:51:18.794Z,2372.00
2022-08-25T08:52:18.761Z,2384.00
2022-08-25T08:53:18.716Z,2392.00
2022-08-25T08:54:18.707Z,2392.00
2022-08-25T08:55:18.635Z,2396.00
2022-08-25T08:56:18.594Z,2400.00
2022-08-25T08:57:18.557Z,2412.00
2022-08-25T08:58:18.523Z,2412.00
2022-08-25T08:59:18.483Z,2416.00
2022-08-25T09:00:18.438Z,2420.00
2022-08-25T09:01:18.459Z,2436.00
2022-08-25T09:02:38.913Z,2448.00
2022-08-25T09:03:18.337Z,2452.00
2022-08-25T09:04:18.277Z,2460.00
2022-08-25T09:05:18.233Z,2464.00
2022-08-25T09:06:18.205Z,2480.00
2022-08-25T09:07:18.156Z,2484.00
2022-08-25T09:08:20.172Z,2484.00
2022-08-25T09:09:20.215Z,2492.00
2022-08-25T09:10:18.042Z,2504.00
2022-08-25T09:11:18.878Z,2512.00
2022-08-25T09:12:18.149Z,2524.00
2022-08-25T09:13:17.918Z,2524.00
2022-08-25T09:14:17.876Z,2536.00
2022-08-25T09:15:17.834Z,2552.00
2022-08-25T09:16:20.426Z,2536.00
2022-08-25T09:17:17.756Z,2548.00
2022-08-25T09:18:17.717Z,2564.00
2022-08-25T09:19:23.512Z,2588.00
2022-08-25T09:20:20.832Z,2588.00
2022-08-25T09:21:17.624Z,2596.00
2022-08-25T09:22:35.624Z,2596.00
2022-08-25T09:23:20.221Z,2592.00
2022-08-25T09:24:17.481Z,2592.00
2022-08-25T09:25:21.975Z,2600.00
2022-08-25T09:27:17.363Z,2628.00
2022-08-25T09:28:17.321Z,2636.00
2022-08-25T09:29:17.295Z,2644.00
2022-08-25T09:30:17.244Z,2636.00
2022-08-25T09:31:17.274Z,2652.00
2022-08-25T09:32:17.165Z,2676.00
2022-08-25T09:33:20.886Z,2664.00
2022-08-25T09:34:17.087Z,2660.00
2022-08-25T09:35:17.048Z,2676.00
2022-08-25T09:36:17.008Z,2680.00
2022-08-25T09:37:16.974Z,2680.00
2022-08-25T09:38:16.933Z,2684.00
2022-08-25T09:40:35.446Z,2708.00
2022-08-25T09:43:13.748Z,2720.00
2022-08-25T09:48:43.580Z,2752.00
2022-08-25T10:08:43.718Z,2856.00
2022-08-25T10:13:53.518Z,2920.00
2022-08-25T10:14:54.522Z,2912.00
2022-08-25T10:15:53.464Z,2900.00
2022-08-25T10:16:53.403Z,2916.00
2022-08-25T10:17:53.365Z,2908.00
2022-08-25T10:18:53.326Z,2936.00
2022-08-25T10:19:53.292Z,2944.00
2022-08-25T10:20:53.249Z,2944.00
2022-08-25T10:21:53.216Z,2960.00
2022-08-25T10:22:53.178Z,2976.00
2022-08-25T10:23:53.141Z,2976.00
2022-08-25T10:24:53.119Z,2988.00
2022-08-25T10:27:01.488Z,3028.00
2022-08-25T10:28:01.449Z,3060.00
2022-08-25T10:29:01.411Z,3092.00
2022-08-25T10:30:01.373Z,3116.00
2022-08-25T10:33:27.958Z,3088.00
2022-08-25T10:34:27.911Z,3080.00
2022-08-25T10:37:54.513Z,3104.00
2022-08-25T10:38:54.475Z,3120.00
2022-08-25T10:39:55.427Z,3164.00
2022-08-25T10:40:54.397Z,3184.00
2022-08-25T10:41:54.364Z,3220.00
2022-08-25T10:42:54.324Z,3228.00
2022-08-25T10:43:54.288Z,3248.00
2022-08-25T10:44:54.255Z,3268.00
2022-08-25T10:45:54.259Z,3308.00
2022-08-25T10:46:54.171Z,3328.00
2022-08-25T10:47:54.136Z,3284.00
2022-08-25T10:48:54.098Z,3292.00
2022-08-25T10:49:54.064Z,3276.00
2022-08-25T10:50:54.024Z,3280.00
2022-08-25T10:51:53.986Z,3336.00
2022-08-25T10:52:53.947Z,3392.00
2022-08-25T10:53:53.915Z,3404.00
2022-08-25T10:54:54.826Z,3428.00
2022-08-25T10:55:53.838Z,3468.00
2022-08-25T10:56:53.798Z,3460.00
2022-08-25T10:57:53.762Z,3500.00
2022-08-25T10:58:53.721Z,3380.00
2022-08-25T10:59:53.686Z,3452.00
2022-08-25T11:00:53.647Z,3464.00
2022-08-25T11:01:53.988Z,3508.00
2022-08-25T11:02:53.572Z,3584.00
2022-08-25T11:03:53.567Z,3512.00
2022-08-25T11:04:53.550Z,3548.00
2022-08-25T11:05:53.464Z,3552.00
2022-08-25T11:06:54.602Z,3528.00
2022-08-25T11:07:53.387Z,3628.00
2022-08-25T11:08:53.351Z,3700.00
2022-08-25T11:09:53.315Z,3724.00
2022-08-25T11:10:53.274Z,3736.00
2022-08-25T11:11:53.238Z,3796.00
2022-08-25T11:12:53.200Z,3836.00
2022-08-25T11:13:53.162Z,3856.00
2022-08-25T11:14:53.123Z,3900.00
2022-08-25T11:16:13.620Z,3892.00
2022-08-25T11:16:53.104Z,3912.00
2022-08-25T11:17:53.016Z,3892.00
2022-08-25T11:18:52.976Z,3928.00
2022-08-25T11:19:52.940Z,3956.00
2022-08-25T11:20:52.903Z,4000.00
2022-08-25T11:21:52.879Z,4044.00
2022-08-25T11:22:52.830Z,4060.00
2022-08-25T11:23:52.791Z,4072.00
2022-08-25T11:24:52.754Z,4072.00
2022-08-25T11:25:52.771Z,4096.00
2022-08-25T11:26:52.682Z,4104.00
2022-08-25T11:27:52.646Z,4180.00
2022-08-25T11:28:52.609Z,4228.00
2022-08-25T11:29:52.582Z,4212.00
2022-08-25T11:30:52.633Z,4220.00
2022-08-25T11:31:53.804Z,4188.00
2022-08-25T11:32:52.460Z,4152.00
2022-08-25T11:33:52.424Z,4284.00
2022-08-25T11:34:52.387Z,4372.00
2022-08-25T11:35:52.351Z,4472.00
2022-08-25T11:36:52.311Z,4524.00
2022-08-25T11:37:52.279Z,4548.00
2022-08-25T11:38:52.238Z,4532.00
2022-08-25T11:39:52.254Z,4484.00
2022-08-25T11:40:52.165Z,4524.00
2022-08-25T11:41:52.145Z,4548.00
2022-08-25T11:42:52.091Z,4524.00
2022-08-25T11:43:52.057Z,4388.00
2022-08-25T11:44:53.771Z,4304.00
2022-08-25T11:45:54.280Z,2828.00
2022-08-25T11:46:51.944Z,4456.00
2022-08-25T11:47:51.917Z,4436.00
2022-08-25T11:48:51.874Z,4572.00
2022-08-25T11:49:51.849Z,4540.00
2022-08-25T11:50:51.799Z,4612.00
2022-08-25T11:51:51.770Z,4600.00
2022-08-25T11:52:51.727Z,4652.00
2022-08-25T11:53:51.695Z,4700.00
2022-08-25T11:54:51.654Z,4720.00
2022-08-25T11:55:51.623Z,4704.00
2022-08-25T11:56:51.584Z,4684.00
2022-08-25T11:57:53.457Z,4692.00
2022-08-25T11:58:51.510Z,4748.00
2022-08-25T11:59:51.480Z,4704.00
2022-08-25T12:00:51.441Z,4024.00
2022-08-25T12:01:51.405Z,4860.00
2022-08-25T12:02:51.367Z,4888.00
2022-08-25T12:03:51.423Z,1500.00
2022-08-25T12:04:51.369Z,1456.00
2022-08-25T12:05:51.264Z,1460.00
2022-08-25T12:06:52.941Z,2248.00
2022-08-25T12:07:51.191Z,4940.00
2022-08-25T12:08:51.154Z,2288.00
2022-08-25T12:09:51.121Z,1488.00
2022-08-25T12:10:51.081Z,1508.00
2022-08-25T12:11:51.047Z,1444.00
2022-08-25T12:12:51.009Z,4476.00
2022-08-25T12:13:50.985Z,5232.00
2022-08-25T12:14:50.938Z,4944.00
2022-08-25T12:15:50.903Z,2444.00
2022-08-25T12:16:50.912Z,5176.00
2022-08-25T12:17:50.833Z,5140.00
2022-08-25T12:18:50.796Z,1860.00
2022-08-25T12:19:50.762Z,1720.00
2022-08-25T12:20:50.723Z,1684.00
2022-08-25T12:21:50.687Z,1652.00
2022-08-25T12:22:50.650Z,4836.00
2022-08-25T12:23:53.255Z,5276.00
2022-08-25T12:24:50.579Z,5320.00
2022-08-25T12:25:50.543Z,5176.00
2022-08-25T12:26:50.509Z,5248.00
2022-08-25T12:27:50.475Z,5292.00
2022-08-25T12:28:50.435Z,5344.00
2022-08-25T12:29:50.402Z,5340.00
2022-08-25T12:30:50.514Z,5348.00
2022-08-25T12:31:50.328Z,5464.00
2022-08-25T12:32:50.291Z,4828.00
2022-08-25T12:33:50.256Z,3564.00
2022-08-25T12:34:50.221Z,2188.00
2022-08-25T12:35:50.185Z,2224.00
2022-08-25T12:36:50.149Z,1864.00
2022-08-25T12:37:50.113Z,3884.00
2022-08-25T12:38:52.167Z,5236.00
2022-08-25T12:39:50.121Z,5308.00
2022-08-25T12:40:50.006Z,4984.00
2022-08-25T12:41:50.011Z,5088.00
2022-08-25T12:42:49.938Z,5236.00
2022-08-25T12:44:49.866Z,5136.00
2022-08-25T12:45:49.913Z,5176.00
2022-08-25T12:46:49.794Z,5268.00
2022-08-25T12:47:49.755Z,5200.00
2022-08-25T12:48:49.726Z,5116.00
2022-08-25T12:49:49.686Z,4888.00
2022-08-25T12:50:49.651Z,4768.00
2022-08-25T12:51:49.625Z,4820.00
2022-08-25T12:52:49.586Z,4616.00
2022-08-25T12:53:49.547Z,2264.00
2022-08-25T12:54:49.511Z,4444.00
2022-08-25T12:55:49.477Z,4364.00
2022-08-25T12:56:49.443Z,4480.00
2022-08-25T12:57:49.417Z,4580.00
2022-08-25T12:58:59.898Z,3980.00
2022-08-25T12:59:49.337Z,3596.00
2022-08-25T13:05:33.588Z,4388.00
2022-08-25T13:06:30.355Z,4164.00
2022-08-25T13:07:31.480Z,2416.00
2022-08-25T13:10:56.922Z,2372.00
2022-08-25T13:11:56.886Z,2348.00
2022-08-25T13:12:56.850Z,2296.00
2022-08-25T13:21:02.991Z,3228.00
2022-08-25T13:25:54.205Z,3028.00
2022-08-25T13:26:54.169Z,3132.00
2022-08-25T13:27:54.132Z,3120.00
2022-08-25T13:28:54.095Z,2964.00
2022-08-25T13:29:54.066Z,2836.00
2022-08-25T13:30:54.024Z,2764.00
2022-08-25T13:31:54.139Z,2780.00
2022-08-25T13:32:53.997Z,2840.00
2022-08-25T13:33:54.855Z,2940.00
2022-08-25T13:34:53.893Z,3020.00
2022-08-25T13:35:53.868Z,3020.00
2022-08-25T13:36:57.849Z,3096.00
2022-08-25T13:37:53.779Z,3188.00
2022-08-25T13:38:53.739Z,3224.00
2022-08-25T13:39:56.192Z,3252.00
2022-08-25T13:40:53.758Z,3316.00
2022-08-25T13:41:55.410Z,3376.00
2022-08-25T13:42:56.155Z,3568.00
2022-08-25T13:43:53.559Z,3692.00
2022-08-25T13:44:53.853Z,3772.00
2022-08-25T13:45:53.530Z,3884.00
2022-08-25T13:46:53.450Z,3892.00
2022-08-25T13:47:56.186Z,3876.00
2022-08-25T13:48:53.378Z,4040.00
2022-08-25T13:49:53.441Z,4140.00
2022-08-25T13:50:53.305Z,4100.00
2022-08-25T13:51:53.270Z,4156.00
2022-08-25T13:52:53.454Z,4112.00
2022-08-25T13:53:53.212Z,3984.00
2022-08-25T13:54:53.158Z,3804.00
2022-08-25T13:55:53.127Z,3240.00
2022-08-25T13:56:53.090Z,3496.00
2022-08-25T13:57:53.051Z,3496.00
2022-08-25T13:58:53.015Z,3656.00
2022-08-25T13:59:52.979Z,3724.00
2022-08-25T14:00:53.744Z,3720.00
2022-08-25T14:01:52.975Z,3700.00
2022-08-25T14:02:52.988Z,3752.00
2022-08-25T14:03:52.834Z,3836.00
2022-08-25T14:04:52.941Z,3872.00
2022-08-25T14:05:52.768Z,3872.00
2022-08-25T14:06:52.723Z,3216.00
2022-08-25T14:08:03.805Z,3568.00
2022-08-25T14:08:54.798Z,3180.00
2022-08-25T14:09:52.618Z,3140.00
2022-08-25T14:10:52.578Z,3464.00
2022-08-25T14:11:52.542Z,3972.00
2022-08-25T14:12:52.692Z,4024.00
2022-08-25T14:13:52.471Z,3984.00
2022-08-25T14:14:52.434Z,3948.00
2022-08-25T14:15:52.396Z,4016.00
2022-08-25T14:16:52.454Z,4052.00
2022-08-25T14:17:52.325Z,4028.00
2022-08-25T14:18:52.284Z,3980.00
2022-08-25T14:19:52.252Z,3932.00
2022-08-25T14:20:52.210Z,3956.00
2022-08-25T14:21:56.595Z,4052.00